createdAt,value
2023-01-21T00:00:45.767Z,96.71
2023-01-21T00:03:12.886Z,96.25
2023-01-21T00:05:39.750Z,98.82
2023-01-21T00:08:06.385Z,100.00
2023-01-21T00:10:33.601Z,99.64
2023-01-21T00:13:00.491Z,99.77
2023-01-21T00:15:27.149Z,99.10
2023-01-21T00:17:54.441Z,100.00
2023-01-21T00:20:21.284Z,100.00
2023-01-21T00:22:47.862Z,99.05
2023-01-21T00:25:14.428Z,97.17
2023-01-21T00:27:41.265Z,96.72
2023-01-21T00:30:08.594Z,96.99
2023-01-21T00:32:35.251Z,97.02
2023-01-21T00:35:01.826Z,97.40
2023-01-21T00:37:28.563Z,98.46
2023-01-21T00:39:55.248Z,99.19
2023-01-21T00:42:21.961Z,97.49
2023-01-21T00:44:48.540Z,98.00
2023-01-21T00:47:15.333Z,100.00
2023-01-21T00:49:41.844Z,100.00
2023-01-21T00:52:08.391Z,100.00
2023-01-21T00:54:35.259Z,100.00
2023-01-21T00:57:01.949Z,100.00
2023-01-21T00:59:28.769Z,100.00
2023-01-21T01:01:55.591Z,100.00
2023-01-21T01:04:22.984Z,100.00
2023-01-21T01:06:49.661Z,100.00
2023-01-21T01:09:16.677Z,99.95
2023-01-21T01:11:43.381Z,99.38
2023-01-21T01:14:09.972Z,99.67
2023-01-21T01:16:36.699Z,98.07
2023-01-21T01:19:03.710Z,98.10
2023-01-21T01:21:30.675Z,97.91
2023-01-21T01:24:00.581Z,98.19
2023-01-21T01:26:27.252Z,98.28
2023-01-21T01:28:53.950Z,97.56
2023-01-21T01:31:22.275Z,97.46
2023-01-21T01:33:49.102Z,95.98
2023-01-21T01:36:23.536Z,95.38
2023-01-21T01:38:51.097Z,96.16
2023-01-21T01:41:21.438Z,96.93
2023-01-21T01:43:49.583Z,95.09
2023-01-21T01:46:16.715Z,95.75
2023-01-21T01:48:46.937Z,96.23
2023-01-21T01:51:16.938Z,97.33
2023-01-21T01:53:46.062Z,96.67
2023-01-21T01:56:14.326Z,97.54
2023-01-21T01:58:41.438Z,97.40
2023-01-21T02:01:08.291Z,96.98
2023-01-21T02:03:46.300Z,96.50
2023-01-21T02:06:15.140Z,96.66
2023-01-21T02:08:44.644Z,97.08
2023-01-21T02:11:16.086Z,97.54
2023-01-21T02:13:45.873Z,98.33
2023-01-21T02:16:21.592Z,97.64
2023-01-21T02:19:03.165Z,100.00
2023-01-21T02:21:47.692Z,99.89
2023-01-21T02:25:01.927Z,100.00
2023-01-21T02:28:19.243Z,100.00
2023-01-21T02:31:14.031Z,100.00
2023-01-21T02:33:54.041Z,99.49
2023-01-21T02:36:39.533Z,97.49
2023-01-21T02:39:40.178Z,97.35
2023-01-21T02:42:17.255Z,96.58
2023-01-21T02:44:54.327Z,95.43
2023-01-21T02:47:37.198Z,94.42
2023-01-21T02:50:18.989Z,94.54
2023-01-21T02:52:45.659Z,93.90
2023-01-21T02:55:15.865Z,93.64
2023-01-21T02:57:49.049Z,93.56
2023-01-21T03:00:27.328Z,94.47
2023-01-21T03:03:15.344Z,95.21
2023-01-21T03:05:41.817Z,93.72
2023-01-21T03:08:17.648Z,95.07
2023-01-21T03:11:05.780Z,95.68
2023-01-21T03:13:57.358Z,96.59
2023-01-21T03:16:50.029Z,95.15
2023-01-21T03:19:18.448Z,98.15
2023-01-21T03:21:47.117Z,98.46
2023-01-21T03:24:14.756Z,97.67
2023-01-21T03:26:48.328Z,96.83
2023-01-21T03:29:21.203Z,97.68
2023-01-21T03:31:51.812Z,98.83
2023-01-21T03:34:20.172Z,98.52
2023-01-21T03:36:53.257Z,98.98
2023-01-21T03:39:42.615Z,100.00
2023-01-21T03:42:10.312Z,98.97
2023-01-21T03:44:38.053Z,99.77
2023-01-21T03:47:23.703Z,99.22
2023-01-21T03:49:54.640Z,99.58
2023-01-21T03:52:24.175Z,96.60
2023-01-21T03:54:51.250Z,97.28
2023-01-21T03:57:17.903Z,97.98
2023-01-21T03:59:44.608Z,97.06
2023-01-21T04:02:11.328Z,96.73
2023-01-21T04:04:37.971Z,97.83
2023-01-21T04:07:04.824Z,95.21
2023-01-21T04:09:31.414Z,94.95
2023-01-21T04:12:00.252Z,94.16
2023-01-21T04:14:26.970Z,94.84
2023-01-21T04:16:53.565Z,94.43
2023-01-21T04:19:20.180Z,92.76
2023-01-21T04:21:47.012Z,92.75
2023-01-21T04:24:13.562Z,92.41
2023-01-21T04:26:40.223Z,93.67
2023-01-21T04:29:06.904Z,91.31
2023-01-21T04:31:33.700Z,89.82
2023-01-21T04:34:00.383Z,90.18
2023-01-21T04:36:27.112Z,90.88
2023-01-21T04:38:53.651Z,91.98
2023-01-21T04:41:20.312Z,91.48
2023-01-21T04:43:46.898Z,90.94
2023-01-21T04:46:13.573Z,91.76
2023-01-21T04:48:40.271Z,91.22
2023-01-21T04:51:07.812Z,89.48
2023-01-21T04:53:34.764Z,88.08
2023-01-21T04:56:01.372Z,87.35
2023-01-21T04:58:27.871Z,87.71
2023-01-21T05:00:55.510Z,89.12
2023-01-21T05:03:22.165Z,89.34
2023-01-21T05:05:48.791Z,89.81
2023-01-21T05:08:15.389Z,89.22
2023-01-21T05:10:42.016Z,88.47
2023-01-21T05:13:08.508Z,87.51
2023-01-21T05:15:35.204Z,86.15
2023-01-21T05:18:01.824Z,85.77
2023-01-21T05:20:29.114Z,85.98
2023-01-21T05:22:55.779Z,87.97
2023-01-21T05:25:22.425Z,84.93
2023-01-21T05:27:53.896Z,83.73
2023-01-21T05:30:21.115Z,83.68
2023-01-21T05:32:54.446Z,83.74
2023-01-21T05:35:22.717Z,83.46
2023-01-21T05:37:49.670Z,82.25
2023-01-21T05:40:17.737Z,82.95
2023-01-21T05:42:44.539Z,81.22
2023-01-21T05:45:11.681Z,80.07
2023-01-21T05:47:38.350Z,82.56
2023-01-21T05:50:05.469Z,83.35
2023-01-21T05:52:32.060Z,83.82
2023-01-21T05:55:02.359Z,82.07
2023-01-21T05:57:30.283Z,82.73
2023-01-21T05:59:56.901Z,79.25
2023-01-21T06:02:25.160Z,80.69
2023-01-21T06:04:51.766Z,81.83
2023-01-21T06:07:18.425Z,80.56
2023-01-21T06:09:44.937Z,79.10
2023-01-21T06:12:11.580Z,80.31
2023-01-21T06:14:38.056Z,82.95
2023-01-21T06:17:04.684Z,86.63
2023-01-21T06:19:31.202Z,91.28
2023-01-21T06:21:57.752Z,92.48
2023-01-21T06:24:24.405Z,92.24
2023-01-21T06:26:51.146Z,92.46
2023-01-21T06:29:17.704Z,88.69
2023-01-21T06:31:44.381Z,88.42
2023-01-21T06:34:12.555Z,88.56
2023-01-21T06:36:42.441Z,90.14
2023-01-21T06:39:11.847Z,93.50
2023-01-21T06:41:38.589Z,91.93
2023-01-21T06:44:05.851Z,93.02
2023-01-21T06:46:33.137Z,93.30
2023-01-21T06:49:00.137Z,93.13
2023-01-21T06:51:26.838Z,92.30
2023-01-21T06:53:53.673Z,93.59
2023-01-21T06:56:22.148Z,94.50
2023-01-21T06:58:48.726Z,95.27
2023-01-21T07:01:15.417Z,93.70
2023-01-21T07:03:42.042Z,93.96
2023-01-21T07:06:08.659Z,92.77
2023-01-21T07:08:35.459Z,92.28
2023-01-21T07:11:02.198Z,92.63
2023-01-21T07:13:28.868Z,93.25
2023-01-21T07:16:01.721Z,95.12
2023-01-21T07:18:28.490Z,96.47
2023-01-21T07:20:56.380Z,98.08
2023-01-21T07:23:23.450Z,97.70
2023-01-21T07:25:50.099Z,97.45
2023-01-21T07:28:16.657Z,98.40
2023-01-21T07:30:43.608Z,96.90
2023-01-21T07:33:10.978Z,99.09
2023-01-21T07:35:37.532Z,97.33
2023-01-21T07:38:04.500Z,98.80
2023-01-21T07:40:31.151Z,100.00
2023-01-21T07:42:57.886Z,100.00
2023-01-21T07:45:25.054Z,100.00
2023-01-21T07:47:51.671Z,100.00
2023-01-21T07:50:18.403Z,100.00
2023-01-21T07:52:44.994Z,100.00
2023-01-21T07:55:12.732Z,100.00
2023-01-21T07:57:39.546Z,100.00
2023-01-21T08:00:07.094Z,100.00
2023-01-21T08:02:38.691Z,100.00
2023-01-21T08:05:07.013Z,100.00
2023-01-21T08:07:33.661Z,100.00
2023-01-21T08:10:00.301Z,100.00
2023-01-21T08:12:27.390Z,100.00
2023-01-21T08:14:54.353Z,100.00
2023-01-21T08:17:20.941Z,100.00
2023-01-21T08:19:47.512Z,100.00
2023-01-21T08:22:14.069Z,100.00
2023-01-21T08:24:40.593Z,100.00
2023-01-21T08:27:07.204Z,100.00
2023-01-21T08:29:33.877Z,100.00
2023-01-21T08:32:00.539Z,100.00
2023-01-21T08:34:27.179Z,100.00
2023-01-21T08:36:53.778Z,100.00
2023-01-21T08:39:20.539Z,100.00
2023-01-21T08:41:47.163Z,100.00
2023-01-21T08:44:15.017Z,100.00
2023-01-21T08:46:41.616Z,100.00
2023-01-21T08:49:08.344Z,100.00
2023-01-21T08:51:34.988Z,100.00
2023-01-21T08:54:01.618Z,100.00
2023-01-21T08:56:28.296Z,100.00
2023-01-21T08:58:56.748Z,100.00
2023-01-21T09:01:25.638Z,100.00
2023-01-21T09:03:57.870Z,100.00
2023-01-21T09:06:26.831Z,100.00
2023-01-21T09:08:53.923Z,100.00
2023-01-21T09:11:21.312Z,100.00
2023-01-21T09:13:47.978Z,100.00
2023-01-21T09:16:20.109Z,100.00
2023-01-21T09:18:47.512Z,100.00
2023-01-21T09:21:15.675Z,100.00
2023-01-21T09:23:42.937Z,100.00
2023-01-21T09:26:16.745Z,100.00
2023-01-21T09:28:46.784Z,100.00
2023-01-21T09:31:18.480Z,100.00
2023-01-21T09:33:47.633Z,100.00
2023-01-21T09:36:18.938Z,100.00
2023-01-21T09:38:47.203Z,100.00
2023-01-21T09:41:29.107Z,100.00
2023-01-21T09:44:31.029Z,100.00
2023-01-21T09:47:17.916Z,100.00
2023-01-21T09:49:50.804Z,100.00
2023-01-21T09:52:36.839Z,100.00
2023-01-21T09:55:06.156Z,100.00
2023-01-21T09:57:35.672Z,100.00
2023-01-21T10:00:29.552Z,100.00
2023-01-21T10:03:04.512Z,100.00
2023-01-21T10:05:52.763Z,100.00
2023-01-21T10:08:27.447Z,100.00
2023-01-21T10:11:32.671Z,100.00
2023-01-21T10:14:15.790Z,100.00
2023-01-21T10:17:05.436Z,100.00
2023-01-21T10:19:45.384Z,100.00
2023-01-21T10:22:24.782Z,100.00
2023-01-21T10:25:18.514Z,100.00
2023-01-21T10:27:45.982Z,100.00
2023-01-21T10:30:23.731Z,100.00
2023-01-21T10:32:52.727Z,100.00
2023-01-21T10:35:31.251Z,100.00
2023-01-21T10:38:25.771Z,100.00
2023-01-21T10:41:00.209Z,100.00
2023-01-21T10:43:45.851Z,100.00
2023-01-21T10:46:17.233Z,98.46
2023-01-21T10:49:23.193Z,97.88
2023-01-21T10:52:06.400Z,98.45
2023-01-21T10:55:13.043Z,97.70
2023-01-21T10:58:12.189Z,94.05
2023-01-21T11:00:44.411Z,98.02
2023-01-21T11:03:16.116Z,100.00
2023-01-21T11:05:43.579Z,99.44
2023-01-21T11:08:20.426Z,99.19
2023-01-21T11:10:49.980Z,98.57
2023-01-21T11:13:16.596Z,99.92
2023-01-21T11:15:51.650Z,99.64
2023-01-21T11:18:40.713Z,100.00
2023-01-21T11:21:20.345Z,100.00
2023-01-21T11:24:01.295Z,100.00
2023-01-21T11:26:34.171Z,99.26
2023-01-21T11:29:11.408Z,99.12
2023-01-21T11:31:39.571Z,100.00
2023-01-21T11:34:12.916Z,100.00
2023-01-21T11:37:06.768Z,100.00
2023-01-21T11:39:36.790Z,100.00
2023-01-21T11:42:13.529Z,100.00
2023-01-21T11:44:52.565Z,100.00
2023-01-21T11:47:48.879Z,100.00
2023-01-21T11:50:16.893Z,100.00
2023-01-21T11:52:44.413Z,100.00
2023-01-21T11:55:48.980Z,100.00
2023-01-21T11:58:38.878Z,100.00
2023-01-21T12:01:09.985Z,100.00
2023-01-21T12:03:42.905Z,100.00
2023-01-21T12:06:21.487Z,100.00
2023-01-21T12:08:51.360Z,100.00
2023-01-21T12:11:29.613Z,100.00
2023-01-21T12:14:11.552Z,100.00
2023-01-21T12:16:45.413Z,100.00
2023-01-21T12:19:21.217Z,100.00
2023-01-21T12:22:06.892Z,100.00
2023-01-21T12:25:04.207Z,100.00
2023-01-21T12:27:51.819Z,100.00
2023-01-21T12:30:54.913Z,100.00
2023-01-21T12:33:36.849Z,100.00
2023-01-21T12:36:12.867Z,100.00
2023-01-21T12:38:44.612Z,100.00
2023-01-21T12:41:32.293Z,100.00
2023-01-21T12:44:05.537Z,100.00
2023-01-21T12:46:40.620Z,100.00
2023-01-21T12:49:16.935Z,100.00
2023-01-21T12:51:49.483Z,100.00
2023-01-21T12:54:46.342Z,100.00
2023-01-21T12:57:25.821Z,100.00
2023-01-21T13:00:11.606Z,100.00
2023-01-21T13:02:54.405Z,100.00
2023-01-21T13:05:45.443Z,100.00
2023-01-21T13:08:20.762Z,100.00
2023-01-21T13:10:49.964Z,100.00
2023-01-21T13:13:20.723Z,100.00
2023-01-21T13:15:52.764Z,100.00
2023-01-21T13:18:33.734Z,100.00
2023-01-21T13:21:23.417Z,100.00
2023-01-21T13:24:15.337Z,100.00
2023-01-21T13:27:02.544Z,100.00
2023-01-21T13:29:35.191Z,100.00
2023-01-21T13:32:23.775Z,100.00
2023-01-21T13:35:06.651Z,100.00
2023-01-21T13:37:43.686Z,100.00
2023-01-21T13:40:29.208Z,100.00
2023-01-21T13:43:10.263Z,100.00
2023-01-21T13:45:55.246Z,100.00
2023-01-21T13:48:44.672Z,100.00
2023-01-21T13:51:40.423Z,100.00
2023-01-21T13:54:16.236Z,100.00
2023-01-21T13:57:01.634Z,100.00
2023-01-21T13:59:37.433Z,100.00
2023-01-21T14:02:40.615Z,100.00
2023-01-21T14:05:22.654Z,100.00
2023-01-21T14:07:56.278Z,100.00
2023-01-21T14:10:50.564Z,100.00
2023-01-21T14:13:45.115Z,100.00
2023-01-21T14:16:45.692Z,100.00
2023-01-21T14:19:31.072Z,100.00
2023-01-21T14:21:57.556Z,100.00
2023-01-21T14:24:45.302Z,99.36
2023-01-21T14:27:24.859Z,100.00
2023-01-21T14:30:05.188Z,100.00
2023-01-21T14:32:47.040Z,98.72
2023-01-21T14:35:21.316Z,99.56
2023-01-21T14:38:04.048Z,100.00
2023-01-21T14:40:33.591Z,100.00
2023-01-21T14:43:00.678Z,100.00
2023-01-21T14:45:52.407Z,99.49
2023-01-21T14:48:34.061Z,98.42
2023-01-21T14:51:12.094Z,98.53
2023-01-21T14:54:19.402Z,97.92
2023-01-21T14:57:31.872Z,98.49
2023-01-21T15:00:10.191Z,97.70
2023-01-21T15:02:42.499Z,97.99
2023-01-21T15:05:23.549Z,97.71
2023-01-21T15:08:04.561Z,97.00
2023-01-21T15:10:37.670Z,96.92
2023-01-21T15:13:34.876Z,95.60
2023-01-21T15:16:16.143Z,96.27
2023-01-21T15:19:05.228Z,94.83
2023-01-21T15:21:36.918Z,92.85
2023-01-21T15:24:35.596Z,91.78
2023-01-21T15:27:22.467Z,91.86
2023-01-21T15:29:55.165Z,91.12
2023-01-21T15:32:37.627Z,90.88
2023-01-21T15:35:31.204Z,88.89
2023-01-21T15:38:15.243Z,89.24
2023-01-21T15:40:46.487Z,88.25
2023-01-21T15:43:27.019Z,88.42
2023-01-21T15:45:59.628Z,87.61
2023-01-21T15:48:48.399Z,88.85
2023-01-21T15:52:00.171Z,88.66
2023-01-21T15:54:46.104Z,88.51
2023-01-21T15:57:30.613Z,88.34
2023-01-21T16:00:03.053Z,87.12
2023-01-21T16:02:33.145Z,87.20
2023-01-21T16:05:30.978Z,86.20
2023-01-21T16:08:08.610Z,86.11
2023-01-21T16:10:56.007Z,86.58
2023-01-21T16:13:52.230Z,87.11
2023-01-21T16:16:19.016Z,87.07
2023-01-21T16:19:03.266Z,87.86
2023-01-21T16:21:43.822Z,87.17
2023-01-21T16:24:17.062Z,85.22
2023-01-21T16:26:43.798Z,85.47
2023-01-21T16:29:13.155Z,85.39
2023-01-21T16:31:49.168Z,84.87
2023-01-21T16:34:24.909Z,85.02
2023-01-21T16:36:51.582Z,84.53
2023-01-21T16:39:19.273Z,84.59
2023-01-21T16:42:00.965Z,84.06
2023-01-21T16:44:28.655Z,83.93
2023-01-21T16:46:55.962Z,84.36
2023-01-21T16:49:22.896Z,84.04
2023-01-21T16:52:00.358Z,84.11
2023-01-21T16:54:29.683Z,84.79
2023-01-21T16:57:01.261Z,84.66
2023-01-21T16:59:37.689Z,85.67
2023-01-21T17:02:05.785Z,86.84
2023-01-21T17:04:32.278Z,86.09
2023-01-21T17:06:59.264Z,85.77
2023-01-21T17:09:33.676Z,85.18
2023-01-21T17:12:11.121Z,86.04
2023-01-21T17:14:37.731Z,86.51
2023-01-21T17:17:08.224Z,86.99
2023-01-21T17:19:42.267Z,86.44
2023-01-21T17:22:21.773Z,86.37
2023-01-21T17:25:02.124Z,87.02
2023-01-21T17:27:29.997Z,87.46
2023-01-21T17:30:18.920Z,88.03
2023-01-21T17:32:57.966Z,88.21
2023-01-21T17:35:26.973Z,89.06
2023-01-21T17:37:56.331Z,89.39
2023-01-21T17:40:38.024Z,89.59
2023-01-21T17:43:32.274Z,89.62
2023-01-21T17:45:59.309Z,89.18
2023-01-21T17:48:31.055Z,88.49
2023-01-21T17:51:13.504Z,88.95
2023-01-21T17:53:46.244Z,88.92
2023-01-21T17:56:13.181Z,87.74
2023-01-21T17:58:55.907Z,87.46
2023-01-21T18:01:22.632Z,87.63
2023-01-21T18:03:49.373Z,87.91
2023-01-21T18:06:19.936Z,87.16
2023-01-21T18:08:46.881Z,86.80
2023-01-21T18:11:16.211Z,87.70
2023-01-21T18:13:43.035Z,88.39
2023-01-21T18:16:10.406Z,87.99
2023-01-21T18:18:38.093Z,89.04
2023-01-21T18:21:05.365Z,88.35
2023-01-21T18:23:32.528Z,86.67
2023-01-21T18:25:59.268Z,86.16
2023-01-21T18:28:28.525Z,87.18
2023-01-21T18:30:57.486Z,86.92
2023-01-21T18:33:24.964Z,86.43
2023-01-21T18:35:52.790Z,88.94
2023-01-21T18:38:27.328Z,89.01
2023-01-21T18:40:55.408Z,90.46
2023-01-21T18:43:22.463Z,90.56
2023-01-21T18:45:49.131Z,90.02
2023-01-21T18:48:17.010Z,89.68
2023-01-21T18:50:43.723Z,89.42
2023-01-21T18:53:11.951Z,91.04
2023-01-21T18:55:40.009Z,92.17
2023-01-21T18:58:13.950Z,90.19
2023-01-21T19:00:41.462Z,91.98
2023-01-21T19:03:11.857Z,92.93
2023-01-21T19:05:40.861Z,93.09
2023-01-21T19:08:24.501Z,93.77
2023-01-21T19:10:51.548Z,93.76
2023-01-21T19:13:18.053Z,94.29
2023-01-21T19:15:45.269Z,96.04
2023-01-21T19:18:15.751Z,95.52
2023-01-21T19:20:42.998Z,96.48
2023-01-21T19:23:16.109Z,96.50
2023-01-21T19:25:49.738Z,96.25
2023-01-21T19:28:16.470Z,96.64
2023-01-21T19:30:45.092Z,97.48
2023-01-21T19:33:12.448Z,99.25
2023-01-21T19:35:42.470Z,97.75
2023-01-21T19:38:16.365Z,99.15
2023-01-21T19:40:42.937Z,98.03
2023-01-21T19:43:14.113Z,98.43
2023-01-21T19:45:41.139Z,99.10
2023-01-21T19:48:13.395Z,97.13
2023-01-21T19:50:40.327Z,98.21
2023-01-21T19:53:06.890Z,98.47
2023-01-21T19:55:36.751Z,100.00
2023-01-21T19:58:09.903Z,100.00
2023-01-21T20:00:36.625Z,100.00
2023-01-21T20:03:03.427Z,100.00
2023-01-21T20:05:34.432Z,100.00
2023-01-21T20:08:02.301Z,100.00
2023-01-21T20:10:30.261Z,100.00
2023-01-21T20:12:57.269Z,100.00
2023-01-21T20:15:29.002Z,100.00
2023-01-21T20:17:57.834Z,100.00
2023-01-21T20:20:27.252Z,100.00
2023-01-21T20:22:54.214Z,100.00
2023-01-21T20:25:35.149Z,100.00
2023-01-21T20:28:04.124Z,100.00
2023-01-21T20:30:32.722Z,100.00
2023-01-21T20:33:01.403Z,100.00
2023-01-21T20:35:28.029Z,100.00
2023-01-21T20:37:56.514Z,100.00
2023-01-21T20:40:30.684Z,100.00
2023-01-21T20:42:57.818Z,100.00
2023-01-21T20:45:30.389Z,100.00
2023-01-21T20:47:59.563Z,100.00
2023-01-21T20:50:33.429Z,100.00
2023-01-21T20:52:59.993Z,100.00
2023-01-21T20:55:28.197Z,100.00
2023-01-21T20:57:55.292Z,100.00
2023-01-21T21:00:32.401Z,100.00
2023-01-21T21:02:59.023Z,100.00
2023-01-21T21:05:27.639Z,100.00
2023-01-21T21:07:54.980Z,100.00
2023-01-21T21:10:29.435Z,100.00
2023-01-21T21:12:58.572Z,100.00
2023-01-21T21:15:30.736Z,100.00
2023-01-21T21:17:58.632Z,100.00
2023-01-21T21:20:30.565Z,100.00
2023-01-21T21:22:57.223Z,99.80
2023-01-21T21:25:26.094Z,100.00
2023-01-21T21:27:53.957Z,100.00
2023-01-21T21:30:32.434Z,100.00
2023-01-21T21:33:00.861Z,99.35
2023-01-21T21:35:32.808Z,99.24
2023-01-21T21:38:04.419Z,98.58
2023-01-21T21:40:31.293Z,97.75
2023-01-21T21:43:17.016Z,96.94
2023-01-21T21:46:02.352Z,97.60
2023-01-21T21:48:39.004Z,97.61
2023-01-21T21:51:11.537Z,98.14
2023-01-21T21:53:39.787Z,97.52
2023-01-21T21:56:14.807Z,97.47
2023-01-21T21:58:41.684Z,96.17
2023-01-21T22:01:09.419Z,95.74
2023-01-21T22:03:36.021Z,96.11
2023-01-21T22:06:03.927Z,96.88
2023-01-21T22:08:35.665Z,96.45
2023-01-21T22:11:05.387Z,95.78
2023-01-21T22:13:35.091Z,94.98
2023-01-21T22:16:02.157Z,95.47
2023-01-21T22:18:30.966Z,95.20
2023-01-21T22:21:06.244Z,94.38
2023-01-21T22:23:33.832Z,94.16
2023-01-21T22:26:05.646Z,95.24
2023-01-21T22:28:33.363Z,94.40
2023-01-21T22:31:05.497Z,93.34
2023-01-21T22:33:33.473Z,93.27
2023-01-21T22:36:07.761Z,92.33
2023-01-21T22:38:35.695Z,92.91
2023-01-21T22:41:03.325Z,93.72
2023-01-21T22:43:31.098Z,93.07
2023-01-21T22:45:59.460Z,94.27
2023-01-21T22:48:26.373Z,94.20
2023-01-21T22:50:54.878Z,93.88
2023-01-21T22:53:22.251Z,92.64
2023-01-21T22:56:01.014Z,94.56
2023-01-21T22:58:29.997Z,94.09
2023-01-21T23:00:57.624Z,93.50
2023-01-21T23:03:25.373Z,94.68
2023-01-21T23:05:52.247Z,95.45
2023-01-21T23:08:19.596Z,96.04
2023-01-21T23:10:47.276Z,97.28
2023-01-21T23:13:15.096Z,96.76
2023-01-21T23:15:46.575Z,96.86
2023-01-21T23:18:14.719Z,97.64
2023-01-21T23:20:42.993Z,97.69
2023-01-21T23:23:11.785Z,98.58
2023-01-21T23:25:43.263Z,98.46
2023-01-21T23:28:11.354Z,98.63
2023-01-21T23:30:37.913Z,98.31
2023-01-21T23:33:04.699Z,98.74
2023-01-21T23:35:34.063Z,97.91
2023-01-21T23:38:02.244Z,97.74
2023-01-21T23:40:28.802Z,97.67
2023-01-21T23:42:55.362Z,98.71
2023-01-21T23:45:21.872Z,97.76
2023-01-21T23:47:48.520Z,99.11
2023-01-21T23:50:15.556Z,98.29
2023-01-21T23:52:42.463Z,99.21
2023-01-21T23:55:10.343Z,98.70
2023-01-21T23:57:37.264Z,98.14
